Selby, South Dakota
Current Conditions -  °F | °C
As of 3:52 AM on Saturday 22 Nov 2014 (Local Time) from KMBG Reporting Station
Clear Clear  
Wind Chill: 22°   Ceiling: Unl
Heat Index: 29°   Visibility: 10mi
Dew Point: 25°   Wind: 7mph
Humidity: 85%   Direction: 130°SE
Pressure: 29.65"   Gusts: NA
Location:  45.51°N, 100.03°W
Report Text: KMBG 220952Z AUTO 13006KT 10SM CLR M02/M04 A2965 RMK AO2 SLP058 T10171039
Loading
Personal Weather Stations






























Interactive Weather Map New forecast layout! Learn more

10-Day Weather Forecast

Advertisements
Track Severe Weather on mobile